Time;durP1;ratioP1;P1;durP2;ratioP2;P2;SDS_P1;SDS_P2;PMS_P1;PMS_P2;Temp;Humidity;BMP_temperature;BMP_pressure;BME280_temperature;BME280_humidity;BME280_pressure;Samples;Min_cycle;Max_cycle;Signal;HPM_P1;HPM_P2
2022/11/29 00:01:05;;;;;;;11.45;4.65;;;7.90;99.90;;;;;;5074132;28;20036;-80
2022/11/29 00:03:32;;;;;;;10.88;4.00;;;7.90;99.90;;;;;;5071290;28;20451;-79
2022/11/29 00:06:07;;;;;;;14.90;4.35;;;7.90;99.90;;;;;;5063397;28;20031;-77
2022/11/29 00:08:33;;;;;;;12.38;4.70;;;7.90;99.90;;;;;;5071357;28;20513;-78
2022/11/29 00:13:59;;;;;;;11.45;4.47;;;7.90;99.90;;;;;;5062303;28;20031;-77
2022/11/29 00:16:25;;;;;;;15.18;4.70;;;7.90;99.90;;;;;;5060167;28;20028;-79
2022/11/29 00:18:51;;;;;;;8.70;4.43;;;7.80;99.90;;;;;;5065681;28;20385;-78
2022/11/29 00:21:16;;;;;;;9.18;3.92;;;7.90;99.90;;;;;;5068790;28;20033;-79
2022/11/29 00:23:42;;;;;;;8.10;4.18;;;7.90;99.90;;;;;;5072749;28;20025;-79
2022/11/29 00:26:09;;;;;;;6.88;4.00;;;7.90;99.90;;;;;;5071107;28;20037;-79
2022/11/29 00:28:35;;;;;;;9.38;4.40;;;7.90;99.90;;;;;;5075447;28;20052;-80
2022/11/29 00:31:25;;;;;;;14.15;4.25;;;7.90;99.90;;;;;;5068800;28;20118;-78
2022/11/29 00:33:52;;;;;;;12.55;4.00;;;8.00;99.90;;;;;;5075388;28;20028;-78
2022/11/29 00:36:18;;;;;;;12.07;4.55;;;7.90;99.90;;;;;;5064988;28;20045;-79
2022/11/29 00:38:44;;;;;;;9.80;3.60;;;7.90;99.90;;;;;;5073570;28;20016;-79
2022/11/29 00:41:11;;;;;;;10.80;4.57;;;7.90;99.90;;;;;;5067618;28;20481;-77
2022/11/29 00:43:37;;;;;;;7.90;3.95;;;7.90;99.90;;;;;;5073992;28;20108;-82
2022/11/29 00:46:03;;;;;;;9.05;4.15;;;7.90;99.90;;;;;;5059458;28;20481;-79
2022/11/29 00:48:30;;;;;;;10.15;4.10;;;8.00;99.90;;;;;;5068306;28;20020;-78
2022/11/29 00:50:55;;;;;;;7.82;4.00;;;7.90;99.90;;;;;;5056648;28;20059;-82
2022/11/29 00:53:21;;;;;;;7.25;4.05;;;8.00;99.90;;;;;;5066053;28;20440;-79
2022/11/29 00:55:48;;;;;;;8.07;3.70;;;7.90;99.90;;;;;;5070539;28;20032;-78
2022/11/29 00:58:14;;;;;;;14.77;4.80;;;7.90;99.90;;;;;;5062702;28;20303;-78
2022/11/29 01:00:40;;;;;;;10.52;3.70;;;7.90;99.90;;;;;;5072913;28;20490;-79
2022/11/29 01:03:06;;;;;;;14.10;4.63;;;7.90;99.90;;;;;;5072316;28;20028;-79
2022/11/29 01:05:32;;;;;;;8.30;3.65;;;7.90;99.90;;;;;;5061842;28;20421;-79
2022/11/29 01:07:58;;;;;;;10.90;4.03;;;7.90;99.90;;;;;;5072641;28;20039;-77
2022/11/29 01:10:24;;;;;;;5.88;3.75;;;7.90;99.90;;;;;;5071392;28;20028;-79
2022/11/29 01:12:50;;;;;;;9.70;3.80;;;8.00;99.90;;;;;;5073282;28;20039;-80
2022/11/29 01:15:16;;;;;;;11.52;4.43;;;8.00;99.90;;;;;;5073565;28;20032;-78
2022/11/29 01:17:42;;;;;;;14.45;4.13;;;8.00;99.90;;;;;;5070037;28;20028;-79
2022/11/29 01:20:10;;;;;;;6.53;3.33;;;8.00;99.90;;;;;;5074609;28;20017;-78
2022/11/29 01:22:37;;;;;;;14.27;4.28;;;8.00;99.90;;;;;;5069343;28;20021;-79
2022/11/29 01:25:04;;;;;;;11.43;4.05;;;8.00;99.90;;;;;;5072846;28;20049;-78
2022/11/29 01:27:30;;;;;;;12.30;5.15;;;8.00;99.90;;;;;;5067927;28;20024;-79
2022/11/29 01:29:56;;;;;;;7.20;4.45;;;7.90;99.90;;;;;;5070014;28;20025;-81
2022/11/29 01:32:21;;;;;;;6.28;4.18;;;7.90;99.90;;;;;;5069237;28;20024;-78
2022/11/29 01:34:47;;;;;;;3.85;3.28;;;7.90;99.90;;;;;;5069888;28;20071;-78
2022/11/29 01:37:13;;;;;;;11.70;4.53;;;7.90;99.90;;;;;;5060910;28;20071;-78
2022/11/29 01:39:39;;;;;;;7.25;3.80;;;7.90;99.90;;;;;;5069671;28;20082;-81
2022/11/29 01:42:05;;;;;;;9.48;4.30;;;7.90;99.90;;;;;;5066995;28;20032;-78
2022/11/29 01:44:30;;;;;;;8.90;3.75;;;7.90;99.90;;;;;;5068833;28;20108;-78
2022/11/29 01:46:57;;;;;;;11.52;4.18;;;7.90;99.90;;;;;;5065409;28;20021;-80
2022/11/29 01:49:32;;;;;;;10.02;4.13;;;7.90;99.90;;;;;;5073751;28;20029;-81
2022/11/29 01:52:02;;;;;;;8.88;3.40;;;7.90;99.90;;;;;;5066093;28;20025;-80
2022/11/29 01:54:30;;;;;;;11.63;4.70;;;7.90;99.90;;;;;;5066373;28;20028;-80
2022/11/29 01:56:58;;;;;;;12.80;4.15;;;7.90;99.90;;;;;;5065469;28;20064;-79
2022/11/29 01:59:27;;;;;;;3.10;2.72;;;7.90;99.90;;;;;;5068019;28;20017;-82
2022/11/29 02:02:18;;;;;;;14.57;4.45;;;7.80;99.90;;;;;;5068265;28;20033;-79
2022/11/29 02:04:45;;;;;;;11.00;4.53;;;7.90;99.90;;;;;;5064901;28;20111;-80
2022/11/29 02:07:11;;;;;;;15.25;4.50;;;7.80;99.90;;;;;;5068865;28;20090;-80
2022/11/29 02:09:37;;;;;;;7.65;3.40;;;7.80;99.90;;;;;;5076120;28;20020;-80
2022/11/29 02:12:30;;;;;;;7.57;3.80;;;7.80;99.90;;;;;;5071820;28;20039;-83
2022/11/29 02:15:06;;;;;;;13.75;5.03;;;7.90;99.90;;;;;;5072103;28;20016;-81
2022/11/29 02:18:04;;;;;;;9.68;3.95;;;7.90;99.90;;;;;;5071231;28;20032;-79
2022/11/29 02:20:57;;;;;;;9.32;3.63;;;7.80;99.90;;;;;;5063192;28;20029;-80
2022/11/29 02:23:38;;;;;;;6.53;3.33;;;7.80;99.90;;;;;;5076420;28;20024;-81
2022/11/29 02:26:43;;;;;;;11.52;3.60;;;7.80;99.90;;;;;;5071591;28;20314;-79
2022/11/29 02:29:30;;;;;;;8.52;3.58;;;7.80;99.90;;;;;;5073837;28;20028;-81
2022/11/29 02:32:19;;;;;;;9.15;4.70;;;7.80;99.90;;;;;;5064594;28;20481;-82
2022/11/29 02:35:06;;;;;;;10.20;3.90;;;7.90;99.90;;;;;;5073606;28;20020;-78
2022/11/29 02:37:45;;;;;;;7.53;3.72;;;7.90;99.90;;;;;;5067914;28;20035;-79
2022/11/29 02:40:32;;;;;;;7.90;3.63;;;7.80;99.90;;;;;;5070358;28;20067;-80
2022/11/29 02:43:08;;;;;;;11.10;3.80;;;7.90;99.90;;;;;;5070982;28;20021;-78
2022/11/29 02:45:46;;;;;;;5.50;4.82;;;7.80;99.90;;;;;;5069342;28;20051;-78
2022/11/29 02:48:24;;;;;;;8.45;3.83;;;7.80;99.90;;;;;;5071767;28;20024;-80
2022/11/29 02:51:16;;;;;;;11.43;5.03;;;7.90;99.90;;;;;;5066448;28;20036;-78
2022/11/29 02:54:09;;;;;;;12.50;4.43;;;7.90;99.90;;;;;;5074478;28;20024;-79
2022/11/29 02:56:57;;;;;;;10.43;4.00;;;8.00;99.90;;;;;;5063676;28;20036;-79
2022/11/29 02:59:43;;;;;;;6.05;3.40;;;8.00;99.90;;;;;;5062538;28;20029;-80
2022/11/29 03:02:23;;;;;;;9.80;4.47;;;8.00;99.90;;;;;;5073938;28;20040;-79
2022/11/29 03:04:54;;;;;;;9.35;3.67;;;8.10;99.90;;;;;;5070757;28;20092;-81
2022/11/29 03:07:38;;;;;;;9.20;4.22;;;8.10;99.90;;;;;;5060488;28;20021;-80
2022/11/29 03:10:39;;;;;;;5.95;3.58;;;8.10;99.90;;;;;;5073327;28;20033;-80
2022/11/29 03:13:08;;;;;;;;;;;8.10;99.90;;;;;;5066866;28;20032;-81
2022/11/29 03:15:43;;;;;;;10.80;3.53;;;8.00;99.90;;;;;;5076466;28;20293;-82
2022/11/29 03:18:28;;;;;;;8.68;3.70;;;7.90;99.90;;;;;;5068974;28;20037;-80
2022/11/29 03:20:56;;;;;;;7.38;3.30;;;7.90;99.90;;;;;;5063978;28;20021;-81
2022/11/29 03:23:42;;;;;;;12.68;3.40;;;7.90;99.90;;;;;;5073381;28;20035;-80
2022/11/29 03:26:34;;;;;;;10.27;4.72;;;7.90;99.90;;;;;;5066797;28;20043;-80
2022/11/29 03:29:18;;;;;;;11.15;4.18;;;7.90;99.90;;;;;;5055617;28;20080;-81
2022/11/29 03:31:59;;;;;;;10.80;4.30;;;7.90;99.90;;;;;;5068921;28;20025;-83
2022/11/29 03:34:34;;;;;;;9.95;3.53;;;7.90;99.90;;;;;;5062604;28;20047;-80
2022/11/29 03:37:26;;;;;;;5.68;3.78;;;7.80;99.90;;;;;;5068747;28;20040;-80
2022/11/29 03:40:13;;;;;;;12.48;4.30;;;7.80;99.90;;;;;;5063814;28;20039;-82
2022/11/29 03:42:51;;;;;;;6.65;3.53;;;7.80;99.90;;;;;;5067262;28;20111;-80
2022/11/29 03:45:41;;;;;;;10.38;4.43;;;7.80;99.90;;;;;;5067886;28;20021;-81
2022/11/29 03:48:25;;;;;;;11.70;3.53;;;7.80;99.90;;;;;;5064532;28;20082;-79
2022/11/29 03:51:02;;;;;;;9.57;3.72;;;7.80;99.90;;;;;;5066410;28;20024;-80
2022/11/29 03:53:50;;;;;;;10.23;4.68;;;7.70;99.90;;;;;;5059605;28;20401;-80
2022/11/29 03:56:26;;;;;;;8.57;3.80;;;7.70;99.90;;;;;;5065907;28;20501;-81
2022/11/29 03:59:29;;;;;;;12.73;4.50;;;7.70;99.90;;;;;;5081092;28;20024;-80
2022/11/29 04:02:14;;;;;;;13.38;4.07;;;7.70;99.90;;;;;;5065996;28;20024;-81
2022/11/29 04:04:48;;;;;;;11.82;4.03;;;7.70;99.90;;;;;;5074097;28;20108;-80
2022/11/29 04:07:52;;;;;;;9.27;3.90;;;7.60;99.90;;;;;;5063205;28;20435;-81
2022/11/29 04:10:55;;;;;;;5.55;3.28;;;7.60;99.90;;;;;;5074071;28;20027;-81
2022/11/29 04:13:39;;;;;;;8.60;3.47;;;7.60;99.90;;;;;;5067413;28;20120;-80
2022/11/29 04:16:17;;;;;;;15.30;4.70;;;7.60;99.90;;;;;;5060523;28;20438;-80
2022/11/29 04:18:57;;;;;;;12.65;4.10;;;7.60;99.90;;;;;;5065916;28;20032;-80
2022/11/29 04:21:32;;;;;;;;;;;7.60;99.90;;;;;;5058888;28;20025;-80
2022/11/29 04:24:08;;;;;;;12.98;4.13;;;7.60;99.90;;;;;;5074164;28;19908;-80
2022/11/29 04:26:45;;;;;;;7.50;3.58;;;7.70;99.90;;;;;;5066459;28;20041;-81
2022/11/29 04:29:38;;;;;;;6.85;3.15;;;7.70;99.90;;;;;;5071373;28;20029;-79
2022/11/29 04:32:24;;;;;;;18.98;5.00;;;7.80;99.90;;;;;;5069974;28;20161;-80
2022/11/29 04:35:08;;;;;;;12.70;4.03;;;7.80;99.90;;;;;;5056089;28;20071;-80
2022/11/29 04:37:47;;;;;;;12.00;4.30;;;7.90;99.90;;;;;;5059725;28;20041;-80
2022/11/29 04:40:22;;;;;;;9.10;3.95;;;7.90;99.90;;;;;;5074344;28;20032;-81
2022/11/29 04:43:18;;;;;;;8.32;3.70;;;7.90;99.90;;;;;;5066870;28;20142;-80
2022/11/29 04:45:50;;;;;;;8.57;4.90;;;7.90;99.90;;;;;;5070956;28;20446;-81
2022/11/29 04:48:25;;;;;;;12.35;3.58;;;8.00;99.90;;;;;;5070202;28;20047;-79
2022/11/29 04:51:00;;;;;;;5.43;3.33;;;8.00;99.90;;;;;;5060101;28;20020;-79
2022/11/29 04:53:45;;;;;;;10.07;3.33;;;8.00;99.90;;;;;;5072156;28;20028;-81
2022/11/29 04:56:26;;;;;;;10.20;3.47;;;8.00;99.90;;;;;;5064067;28;20036;-79
2022/11/29 04:59:02;;;;;;;;;;;8.00;99.90;;;;;;5064359;28;20478;-79
2022/11/29 05:01:55;;;;;;;7.60;3.30;;;8.10;99.90;;;;;;5061631;28;19915;-79
2022/11/29 05:04:23;;;;;;;9.93;3.10;;;8.10;99.90;;;;;;5057654;28;20021;-80
2022/11/29 05:07:28;;;;;;;9.55;3.90;;;8.10;99.90;;;;;;5063207;28;20487;-79
2022/11/29 05:10:24;;;;;;;12.05;4.47;;;8.10;99.90;;;;;;5070207;28;20645;-80
2022/11/29 05:13:17;;;;;;;6.07;3.33;;;8.10;99.90;;;;;;5083390;28;20025;-80
2022/11/29 05:15:49;;;;;;;12.18;3.47;;;8.10;99.90;;;;;;5069985;28;20032;-80
2022/11/29 05:18:39;;;;;;;12.10;4.13;;;8.10;99.90;;;;;;5069896;28;20465;-79
2022/11/29 05:21:19;;;;;;;4.85;3.50;;;8.10;99.90;;;;;;5061901;28;20484;-80
2022/11/29 05:24:01;;;;;;;11.98;3.97;;;8.10;99.90;;;;;;5067989;28;20435;-80
2022/11/29 05:26:38;;;;;;;5.03;3.55;;;8.10;99.90;;;;;;5064352;28;20029;-80
2022/11/29 05:29:15;;;;;;;7.57;3.67;;;8.10;99.90;;;;;;5074254;28;20487;-80
2022/11/29 05:31:53;;;;;;;6.38;3.42;;;8.10;99.90;;;;;;5062495;28;20028;-80
2022/11/29 05:34:31;;;;;;;6.57;3.30;;;8.10;99.90;;;;;;5071688;28;20079;-79
2022/11/29 05:37:17;;;;;;;8.73;3.58;;;8.10;99.90;;;;;;5063132;28;20096;-81
2022/11/29 05:39:54;;;;;;;14.77;4.10;;;8.00;99.90;;;;;;5072669;28;20056;-80
2022/11/29 05:42:32;;;;;;;8.77;3.35;;;8.00;99.90;;;;;;5067939;28;20029;-82
2022/11/29 05:45:08;;;;;;;13.00;3.70;;;8.00;99.90;;;;;;5055145;28;20100;-80
2022/11/29 05:48:06;;;;;;;6.93;3.35;;;8.00;99.90;;;;;;5067329;28;20024;-80
2022/11/29 05:50:55;;;;;;;5.50;3.95;;;8.00;99.90;;;;;;5063756;28;20056;-81
2022/11/29 05:53:30;;;;;;;6.85;3.58;;;8.00;99.90;;;;;;5074541;28;20028;-82
2022/11/29 05:56:14;;;;;;;4.38;3.25;;;8.00;99.90;;;;;;5075659;28;20447;-80
2022/11/29 05:58:49;;;;;;;12.07;3.75;;;8.00;99.90;;;;;;5069342;28;20024;-81
2022/11/29 06:01:30;;;;;;;10.20;4.25;;;8.00;99.90;;;;;;5074888;28;20041;-83
2022/11/29 06:04:20;;;;;;;6.88;3.78;;;8.10;99.90;;;;;;5065413;28;20009;-80
2022/11/29 06:06:49;;;;;;;10.30;3.80;;;8.10;99.90;;;;;;5066350;28;20033;-80
2022/11/29 06:09:29;;;;;;;15.40;4.43;;;8.10;99.90;;;;;;5069876;28;20070;-82
2022/11/29 06:12:05;;;;;;;11.50;3.60;;;8.10;99.90;;;;;;5069269;28;20468;-78
2022/11/29 06:14:54;;;;;;;5.75;3.40;;;8.20;99.90;;;;;;5070085;28;20027;-80
2022/11/29 06:17:54;;;;;;;8.52;3.25;;;8.20;99.90;;;;;;5075530;28;20133;-80
2022/11/29 06:20:42;;;;;;;8.23;3.55;;;8.20;99.90;;;;;;5072170;28;20025;-80
2022/11/29 06:23:27;;;;;;;13.85;3.50;;;8.20;99.90;;;;;;5069414;28;20075;-81
2022/11/29 06:26:27;;;;;;;9.60;3.85;;;8.10;99.90;;;;;;5059720;28;20044;-81
2022/11/29 06:29:13;;;;;;;7.53;4.00;;;8.10;99.90;;;;;;5073020;28;20029;-81
2022/11/29 06:31:43;;;;;;;9.02;3.90;;;8.10;99.90;;;;;;5079352;28;20123;-80
2022/11/29 06:34:16;;;;;;;7.80;3.63;;;8.10;99.90;;;;;;5073704;28;20029;-80
2022/11/29 06:36:49;;;;;;;9.10;3.78;;;8.10;99.90;;;;;;5067327;28;20037;-81
2022/11/29 06:39:15;;;;;;;8.23;4.20;;;8.20;99.90;;;;;;5067550;28;20025;-80
2022/11/29 06:41:41;;;;;;;11.98;3.95;;;8.20;99.90;;;;;;5064767;28;20037;-82
2022/11/29 06:44:09;;;;;;;10.48;4.30;;;8.20;99.90;;;;;;5074552;28;20029;-81
2022/11/29 06:46:44;;;;;;;11.90;4.10;;;8.20;99.90;;;;;;5066546;28;20025;-80
2022/11/29 06:49:31;;;;;;;12.20;4.03;;;8.20;99.90;;;;;;5075543;28;20111;-80
2022/11/29 06:52:10;;;;;;;9.45;3.83;;;8.20;99.90;;;;;;5064866;28;20021;-80
2022/11/29 06:55:11;;;;;;;6.45;3.63;;;8.30;99.90;;;;;;5063366;28;20099;-81
2022/11/29 06:57:36;;;;;;;;;;;8.30;99.90;;;;;;5065961;28;20028;-81
2022/11/29 07:00:08;;;;;;;9.02;4.03;;;8.30;99.90;;;;;;5060963;28;20003;-81
2022/11/29 07:03:18;;;;;;;9.52;4.03;;;8.30;99.90;;;;;;5062744;28;20025;-81
2022/11/29 07:05:45;;;;;;;7.40;3.75;;;8.30;99.90;;;;;;5063231;28;20067;-78
2022/11/29 07:08:20;;;;;;;12.35;3.72;;;8.30;99.90;;;;;;5067938;28;20039;-79
2022/11/29 07:10:49;;;;;;;7.07;4.18;;;8.30;99.90;;;;;;5066218;28;20035;-80
2022/11/29 07:13:16;;;;;;;7.78;3.97;;;8.40;99.90;;;;;;5070594;28;20085;-80
2022/11/29 07:16:17;;;;;;;14.25;3.90;;;8.40;99.90;;;;;;5070124;28;20046;-80
2022/11/29 07:19:02;;;;;;;;;;;8.40;99.90;;;;;;5075960;28;20546;-80
2022/11/29 07:21:56;;;;;;;7.07;4.38;;;8.50;99.90;;;;;;5072892;28;19958;-81
2022/11/29 07:24:41;;;;;;;7.47;3.90;;;8.50;99.90;;;;;;5069096;28;20406;-80
2022/11/29 07:27:37;;;;;;;7.60;4.05;;;8.50;99.90;;;;;;5065993;28;20032;-80
2022/11/29 07:30:11;;;;;;;7.50;3.53;;;8.50;99.90;;;;;;5059432;28;20033;-79
2022/11/29 07:32:54;;;;;;;8.65;4.13;;;8.50;99.90;;;;;;5072181;28;20201;-80
2022/11/29 07:36:00;;;;;;;9.98;3.55;;;8.60;99.90;;;;;;5062985;28;20109;-80
2022/11/29 07:38:55;;;;;;;9.55;4.35;;;8.60;99.90;;;;;;5067395;28;20020;-80
2022/11/29 07:41:56;;;;;;;7.38;3.78;;;8.60;99.90;;;;;;5061061;28;20128;-79
2022/11/29 07:44:41;;;;;;;8.10;3.60;;;8.60;99.90;;;;;;5070350;28;20021;-80
2022/11/29 07:47:08;;;;;;;9.82;4.10;;;8.70;99.90;;;;;;5064679;28;20040;-80
2022/11/29 07:49:33;;;;;;;9.23;4.18;;;8.70;99.90;;;;;;5066458;28;20075;-78
2022/11/29 07:51:59;;;;;;;12.30;3.60;;;8.70;99.90;;;;;;5068324;28;20029;-78
2022/11/29 07:54:25;;;;;;;7.25;3.85;;;8.80;99.90;;;;;;5073782;28;20033;-78
2022/11/29 07:56:51;;;;;;;6.43;3.20;;;8.80;99.90;;;;;;5068052;28;20025;-78
2022/11/29 07:59:17;;;;;;;7.60;3.75;;;8.80;99.90;;;;;;5071523;28;20030;-79
2022/11/29 08:01:43;;;;;;;6.63;4.15;;;8.80;99.90;;;;;;5066344;28;20124;-78
2022/11/29 08:04:09;;;;;;;5.78;3.08;;;8.90;99.90;;;;;;5054863;28;20021;-78
2022/11/29 08:06:35;;;;;;;7.72;3.22;;;8.90;99.90;;;;;;5066918;28;20075;-78
2022/11/29 08:09:01;;;;;;;6.40;3.28;;;8.90;99.90;;;;;;5067883;28;20395;-78
2022/11/29 08:11:27;;;;;;;8.00;3.00;;;8.90;99.90;;;;;;5065189;28;20021;-80
2022/11/29 08:14:01;;;;;;;8.18;3.72;;;8.90;99.90;;;;;;5072688;28;20582;-78
2022/11/29 08:16:26;;;;;;;11.68;3.80;;;8.90;99.90;;;;;;5066301;28;20021;-78
2022/11/29 08:18:52;;;;;;;9.95;3.58;;;8.90;99.90;;;;;;5073919;28;20043;-78
2022/11/29 08:21:18;;;;;;;5.30;3.45;;;8.80;99.90;;;;;;5070720;28;20048;-78
2022/11/29 08:23:48;;;;;;;12.32;4.18;;;8.90;99.90;;;;;;5067908;28;20416;-79
2022/11/29 08:26:15;;;;;;;9.55;3.95;;;8.90;99.90;;;;;;5073386;28;20037;-78
2022/11/29 08:28:41;;;;;;;13.40;5.25;;;8.90;99.90;;;;;;5061123;28;20079;-79
2022/11/29 08:31:09;;;;;;;10.82;4.20;;;8.90;99.90;;;;;;5058422;28;20058;-78
2022/11/29 08:33:40;;;;;;;8.68;4.15;;;9.00;99.90;;;;;;5062765;28;20029;-78
2022/11/29 08:36:15;;;;;;;10.63;3.83;;;9.10;99.90;;;;;;5059885;28;20029;-78
2022/11/29 08:38:41;;;;;;;9.27;3.97;;;9.10;99.90;;;;;;5071774;28;20035;-79
2022/11/29 08:41:09;;;;;;;11.95;4.97;;;9.20;99.90;;;;;;5067996;28;20130;-78
2022/11/29 08:43:35;;;;;;;5.57;3.92;;;9.20;99.90;;;;;;5057573;28;20021;-78
2022/11/29 08:46:01;;;;;;;7.32;4.03;;;9.20;99.90;;;;;;5056094;28;20718;-78
2022/11/29 08:48:27;;;;;;;7.32;4.15;;;9.30;99.90;;;;;;5057157;28;20402;-78
2022/11/29 08:50:54;;;;;;;15.25;4.60;;;9.30;99.90;;;;;;5064482;28;20040;-78
2022/11/29 08:56:10;;;;;;;15.05;6.80;;;9.50;99.90;;;;;;5055547;28;20071;-77
2022/11/29 08:58:37;;;;;;;8.23;4.53;;;9.50;99.90;;;;;;5065170;28;20524;-79
2022/11/29 09:01:03;;;;;;;9.90;3.25;;;9.60;99.90;;;;;;5056997;28;20290;-78
2022/11/29 09:06:16;;;;;;;9.27;3.33;;;9.60;99.90;;;;;;5067533;28;20052;-79
2022/11/29 09:08:43;;;;;;;15.02;3.90;;;9.50;99.90;;;;;;5058003;28;20020;-78
2022/11/29 09:11:14;;;;;;;11.25;3.78;;;9.60;99.90;;;;;;5057998;28;21033;-79
2022/11/29 09:13:42;;;;;;;6.07;3.53;;;9.50;99.90;;;;;;5059557;28;20504;-78
2022/11/29 09:16:10;;;;;;;11.00;4.00;;;9.60;99.90;;;;;;5066278;28;20367;-78
2022/11/29 09:18:37;;;;;;;7.30;2.72;;;9.50;99.90;;;;;;5056699;28;20489;-78
2022/11/29 09:21:08;;;;;;;7.38;3.65;;;9.50;99.90;;;;;;5060228;28;20025;-77
2022/11/29 09:23:34;;;;;;;;;;;9.60;99.90;;;;;;5063143;28;20385;-78
2022/11/29 09:26:00;;;;;;;5.15;3.17;;;9.60;99.90;;;;;;5063359;28;20303;-78
2022/11/29 09:28:26;;;;;;;8.00;3.47;;;9.70;99.90;;;;;;5071197;28;20087;-78
2022/11/29 09:30:52;;;;;;;10.05;3.65;;;9.70;99.90;;;;;;5075185;28;20124;-78
2022/11/29 09:33:18;;;;;;;8.07;2.90;;;9.80;99.90;;;;;;5067303;28;20060;-78
2022/11/29 09:35:44;;;;;;;8.77;3.30;;;9.90;99.90;;;;;;5069228;28;20036;-78
2022/11/29 09:38:11;;;;;;;6.95;3.65;;;10.00;99.90;;;;;;5064913;28;20032;-78
2022/11/29 09:40:45;;;;;;;5.97;2.90;;;10.00;99.90;;;;;;5075837;28;20020;-79
2022/11/29 09:43:39;;;;;;;5.88;2.97;;;10.00;99.90;;;;;;5077750;28;20017;-79
2022/11/29 09:46:16;;;;;;;9.23;3.35;;;10.00;99.90;;;;;;5060866;28;20041;-78
2022/11/29 09:49:02;;;;;;;9.35;4.30;;;10.00;99.90;;;;;;5064130;28;20029;-79
2022/11/29 09:51:32;;;;;;;12.70;3.85;;;10.10;99.90;;;;;;5070802;28;20020;-79
2022/11/29 09:54:35;;;;;;;8.18;5.50;;;10.00;99.90;;;;;;5071241;28;20021;-78
2022/11/29 09:57:04;;;;;;;10.35;3.60;;;10.10;99.90;;;;;;5068169;28;20033;-78
2022/11/29 09:59:42;;;;;;;10.45;3.80;;;10.10;99.90;;;;;;5066180;28;20052;-78
2022/11/29 10:02:34;;;;;;;5.13;3.03;;;10.20;99.90;;;;;;5070591;28;20025;-78
2022/11/29 10:05:15;;;;;;;10.35;3.72;;;10.40;99.90;;;;;;5074377;28;20046;-78
2022/11/29 10:08:18;;;;;;;5.22;3.85;;;10.50;99.90;;;;;;5068502;28;20134;-78
2022/11/29 10:10:46;;;;;;;7.15;4.47;;;10.60;99.90;;;;;;5068612;28;20469;-79
2022/11/29 10:13:22;;;;;;;8.20;4.90;;;10.50;99.90;;;;;;5061422;28;20032;-78
2022/11/29 10:15:55;;;;;;;10.43;3.85;;;10.50;99.90;;;;;;5076364;28;20385;-78
2022/11/29 10:18:25;;;;;;;7.95;3.97;;;10.60;99.90;;;;;;5071174;28;20030;-79
2022/11/29 10:20:57;;;;;;;11.68;4.05;;;10.60;99.90;;;;;;5077249;28;20021;-78
2022/11/29 10:23:35;;;;;;;10.38;4.22;;;10.60;99.90;;;;;;5063724;28;20025;-77
2022/11/29 10:26:06;;;;;;;9.38;3.97;;;10.60;99.90;;;;;;5060174;28;20106;-78
2022/11/29 10:28:34;;;;;;;6.82;3.30;;;10.70;99.90;;;;;;5065489;28;20025;-78
2022/11/29 10:31:23;;;;;;;8.80;5.22;;;10.80;99.90;;;;;;5065125;28;20361;-78
2022/11/29 10:33:49;;;;;;;9.32;3.88;;;10.80;99.90;;;;;;5076973;28;20028;-79
2022/11/29 10:36:34;;;;;;;13.57;4.30;;;10.90;99.90;;;;;;5074739;28;20052;-79
2022/11/29 10:39:10;;;;;;;7.82;3.55;;;11.00;99.90;;;;;;5074139;28;20141;-79
2022/11/29 10:41:36;;;;;;;8.75;3.30;;;11.00;99.90;;;;;;5073923;28;20016;-76
2022/11/29 10:44:02;;;;;;;6.45;2.72;;;11.10;99.90;;;;;;5072550;28;20032;-76
2022/11/29 10:46:33;;;;;;;10.02;3.15;;;11.00;99.90;;;;;;5072612;28;20024;-76
2022/11/29 10:49:03;;;;;;;5.32;3.47;;;11.00;99.90;;;;;;5071572;28;20031;-77
2022/11/29 10:51:30;;;;;;;9.90;3.70;;;11.00;99.90;;;;;;5069953;28;20025;-77
2022/11/29 10:54:01;;;;;;;8.88;3.33;;;11.00;99.90;;;;;;5070807;28;20049;-77
2022/11/29 10:56:36;;;;;;;6.80;3.03;;;11.00;99.90;;;;;;5066926;28;20029;-77
2022/11/29 10:59:07;;;;;;;9.57;3.40;;;11.00;99.90;;;;;;5074745;28;20027;-78
2022/11/29 11:01:38;;;;;;;10.65;2.80;;;11.00;99.90;;;;;;5068910;28;20083;-78
2022/11/29 11:04:07;;;;;;;9.98;3.60;;;11.10;99.90;;;;;;5071033;28;20040;-77
2022/11/29 11:06:50;;;;;;;12.00;3.88;;;11.20;99.90;;;;;;5070470;28;20437;-79
2022/11/29 11:09:20;;;;;;;9.13;4.15;;;11.30;99.90;;;;;;5073796;28;20021;-80
2022/11/29 11:11:58;;;;;;;10.93;3.80;;;11.30;99.90;;;;;;5068561;28;20493;-79
2022/11/29 11:14:30;;;;;;;7.70;2.80;;;11.40;99.90;;;;;;5059318;28;20033;-82
2022/11/29 11:17:26;;;;;;;11.25;3.65;;;11.30;99.90;;;;;;5063569;28;20029;-76
2022/11/29 11:20:09;;;;;;;7.68;2.97;;;11.30;99.90;;;;;;5063480;28;20046;-78
2022/11/29 11:22:38;;;;;;;7.45;2.95;;;11.20;99.90;;;;;;5067548;28;20064;-77
2022/11/29 11:25:23;;;;;;;4.75;3.03;;;11.20;99.90;;;;;;5059526;28;20098;-77
2022/11/29 11:27:49;;;;;;;7.75;4.82;;;11.40;99.90;;;;;;5068413;28;20116;-78
2022/11/29 11:30:27;;;;;;;4.95;2.28;;;11.50;99.90;;;;;;5061156;28;20025;-78
2022/11/29 11:33:23;;;;;;;6.60;3.28;;;11.60;99.90;;;;;;5059587;28;20088;-77
2022/11/29 11:36:04;;;;;;;7.53;2.83;;;11.70;99.90;;;;;;5071912;28;20033;-78
2022/11/29 11:38:30;;;;;;;7.70;3.13;;;11.90;99.90;;;;;;5068443;28;20033;-77
2022/11/29 11:41:20;;;;;;;9.90;3.22;;;11.90;99.90;;;;;;5072939;28;20024;-78
2022/11/29 11:44:04;;;;;;;11.32;3.30;;;11.80;99.90;;;;;;5059565;28;20032;-77
2022/11/29 11:46:48;;;;;;;14.02;3.90;;;11.80;99.90;;;;;;5062974;28;20025;-78
2022/11/29 11:49:24;;;;;;;7.72;3.25;;;11.80;99.90;;;;;;5065172;28;20021;-79
2022/11/29 11:51:50;;;;;;;5.28;2.78;;;11.60;99.90;;;;;;5068579;28;20431;-78
2022/11/29 11:54:16;;;;;;;12.25;3.78;;;11.40;99.90;;;;;;5066415;28;20036;-78
2022/11/29 11:56:42;;;;;;;5.60;2.40;;;11.30;99.90;;;;;;5071100;28;20371;-78
2022/11/29 11:59:19;;;;;;;10.95;3.60;;;11.20;99.90;;;;;;5060812;28;20040;-79
2022/11/29 12:01:45;;;;;;;8.00;3.50;;;11.20;99.90;;;;;;5059862;28;20035;-79
2022/11/29 12:04:11;;;;;;;15.13;4.07;;;11.20;99.90;;;;;;5066545;28;20500;-77
2022/11/29 12:06:57;;;;;;;13.27;5.20;;;11.30;99.90;;;;;;5069817;28;20029;-76
2022/11/29 12:09:54;;;;;;;11.32;4.55;;;11.60;99.90;;;;;;5072947;28;20469;-78
2022/11/29 12:12:32;;;;;;;14.27;4.88;;;11.80;99.90;;;;;;5067135;28;20511;-78
2022/11/29 12:15:01;;;;;;;22.25;6.50;;;11.90;99.90;;;;;;5063377;28;20028;-77
2022/11/29 12:17:43;;;;;;;10.07;4.13;;;12.00;99.90;;;;;;5067847;28;20024;-77
2022/11/29 12:20:16;;;;;;;19.30;5.30;;;12.00;99.90;;;;;;5072989;28;20017;-78
2022/11/29 12:23:05;;;;;;;11.75;4.28;;;11.80;99.90;;;;;;5066104;28;20036;-78
2022/11/29 12:26:03;;;;;;;8.77;3.85;;;11.60;99.90;;;;;;5043437;28;20044;-79
2022/11/29 12:28:32;;;;;;;11.68;5.72;;;11.30;99.90;;;;;;5068828;28;20049;-78
2022/11/29 12:31:23;;;;;;;12.75;4.13;;;11.10;99.90;;;;;;5070053;28;20101;-80
2022/11/29 12:34:26;;;;;;;12.98;4.97;;;10.90;99.90;;;;;;5070947;28;20043;-79
2022/11/29 12:37:13;;;;;;;16.70;8.77;;;10.80;99.90;;;;;;5059368;28;20025;-79
2022/11/29 12:39:56;;;;;;;16.70;7.13;;;10.70;99.90;;;;;;5074423;28;20020;-79
2022/11/29 12:42:31;;;;;;;20.48;10.50;;;10.70;99.90;;;;;;5064712;28;20079;-78
2022/11/29 12:45:26;;;;;;;16.40;8.52;;;10.70;99.90;;;;;;5063767;28;20078;-79
2022/11/29 12:48:09;;;;;;;17.17;5.80;;;10.90;99.90;;;;;;5081738;28;20109;-79
2022/11/29 12:50:58;;;;;;;18.25;5.45;;;11.10;99.90;;;;;;5060334;28;20482;-79
2022/11/29 12:53:56;;;;;;;14.70;5.07;;;11.30;99.90;;;;;;5068503;28;20164;-78
2022/11/29 12:56:59;;;;;;;10.30;3.92;;;11.40;99.90;;;;;;5057205;28;20439;-78
2022/11/29 12:59:47;;;;;;;8.55;4.10;;;11.40;99.90;;;;;;5071546;28;20081;-79
2022/11/29 13:02:29;;;;;;;10.63;4.30;;;11.30;99.90;;;;;;5065775;28;20078;-79
2022/11/29 13:05:24;;;;;;;8.30;3.70;;;11.30;99.90;;;;;;5078598;28;20036;-79
2022/11/29 13:07:56;;;;;;;10.80;2.75;;;11.30;99.90;;;;;;5066384;28;20481;-77
2022/11/29 13:10:44;;;;;;;8.55;4.65;;;11.30;99.90;;;;;;5074207;28;20094;-78
2022/11/29 13:13:13;;;;;;;13.38;6.25;;;11.30;99.90;;;;;;5066842;28;20036;-78
2022/11/29 13:16:02;;;;;;;10.02;3.70;;;11.30;99.90;;;;;;5072247;28;20377;-80
2022/11/29 13:18:30;;;;;;;12.20;5.15;;;11.20;99.90;;;;;;5064078;28;20028;-79
2022/11/29 13:21:14;;;;;;;12.68;4.03;;;11.30;99.90;;;;;;5072361;28;20484;-78
2022/11/29 13:24:00;;;;;;;16.15;5.22;;;11.40;99.90;;;;;;5073197;28;20028;-79
2022/11/29 13:26:28;;;;;;;6.47;2.97;;;11.40;99.90;;;;;;5072286;28;20089;-79
2022/11/29 13:28:56;;;;;;;10.65;7.63;;;11.30;99.90;;;;;;5072216;28;20097;-79
2022/11/29 13:31:24;;;;;;;12.50;3.95;;;11.20;99.90;;;;;;5070989;28;20024;-79
2022/11/29 13:34:04;;;;;;;12.02;4.35;;;11.10;99.90;;;;;;5074737;28;20066;-79
2022/11/29 13:36:43;;;;;;;12.27;4.80;;;11.10;99.90;;;;;;5072771;28;20025;-78
2022/11/29 13:39:47;;;;;;;17.05;7.30;;;11.10;99.90;;;;;;5073589;28;20033;-78
2022/11/29 13:42:28;;;;;;;12.00;4.55;;;11.30;99.90;;;;;;5070309;28;20029;-78
2022/11/29 13:45:27;;;;;;;9.02;4.25;;;11.50;99.90;;;;;;5074270;28;20080;-77
2022/11/29 13:47:58;;;;;;;16.40;6.22;;;11.60;99.90;;;;;;5068773;28;20183;-78
2022/11/29 13:50:44;;;;;;;9.65;4.68;;;11.50;99.90;;;;;;5062075;28;20029;-77